Time;durP1;ratioP1;P1;durP2;ratioP2;P2;SDS_P1;SDS_P2;PMS_P1;PMS_P2;Temp;Humidity;BMP_temperature;BMP_pressure;BME280_temperature;BME280_humidity;BME280_pressure;Samples;Min_cycle;Max_cycle;Signal;HPM_P1;HPM_P2
2022/05/09 00:01:13;;;;;;;6.93;5.35;;;;;;;17.20;61.88;101075.59;4973687;28;21023;-72
2022/05/09 00:03:38;;;;;;;5.78;5.22;;;;;;;17.17;62.03;101079.72;4973910;28;20400;-73
2022/05/09 00:06:03;;;;;;;5.93;5.33;;;;;;;17.15;62.14;101081.91;4972434;28;20419;-73
2022/05/09 00:08:28;;;;;;;5.87;5.30;;;;;;;17.13;62.35;101079.44;4973843;28;20929;-73
2022/05/09 00:10:54;;;;;;;5.78;5.38;;;;;;;17.13;62.51;101079.44;4973732;28;20393;-73
2022/05/09 00:13:19;;;;;;;6.77;5.63;;;;;;;17.15;62.68;101089.31;4971454;28;20503;-73
2022/05/09 00:15:44;;;;;;;6.17;5.13;;;;;;;17.12;62.70;101083.25;4968689;28;20428;-73
2022/05/09 00:18:09;;;;;;;6.00;5.40;;;;;;;17.13;62.70;101078.59;4964833;28;20785;-73
2022/05/09 00:20:35;;;;;;;6.30;5.80;;;;;;;17.13;62.80;101090.38;4972385;28;20404;-73
2022/05/09 00:23:00;;;;;;;6.47;5.70;;;;;;;17.09;62.83;101081.06;4973548;28;20823;-73
2022/05/09 00:25:27;;;;;;;6.47;5.90;;;;;;;17.06;62.79;101089.81;4973617;28;20524;-73
2022/05/09 00:27:54;;;;;;;5.50;5.00;;;;;;;17.03;63.00;101082.16;4973455;28;20404;-73
2022/05/09 00:30:19;;;;;;;6.93;6.18;;;;;;;17.01;63.03;101087.09;4973713;28;20499;-73
2022/05/09 00:32:45;;;;;;;6.33;5.73;;;;;;;17.01;63.09;101092.56;4972192;28;20816;-73
2022/05/09 00:35:11;;;;;;;7.82;6.20;;;;;;;16.99;63.03;101092.00;4972036;28;20419;-73
2022/05/09 00:37:37;;;;;;;6.88;6.20;;;;;;;16.97;63.24;101096.13;4972256;28;20415;-73
2022/05/09 00:40:05;;;;;;;6.68;6.07;;;;;;;16.95;63.26;101085.44;4971355;28;20451;-73
2022/05/09 00:42:31;;;;;;;6.18;5.68;;;;;;;16.93;63.14;101090.34;4970484;28;20400;-73
2022/05/09 00:44:56;;;;;;;6.10;5.60;;;;;;;16.87;63.23;101091.44;4973434;28;20892;-73
2022/05/09 00:47:21;;;;;;;6.20;5.70;;;;;;;16.83;63.33;101087.59;4972209;28;20899;-73
2022/05/09 00:49:50;;;;;;;6.70;5.90;;;;;;;16.80;63.44;101088.16;4973200;28;20403;-73
2022/05/09 00:52:24;;;;;;;6.28;5.65;;;;;;;16.72;63.66;101085.97;4972899;28;20400;-73
2022/05/09 00:55:01;;;;;;;6.88;6.18;;;;;;;16.69;63.72;101088.41;4972852;28;20396;-73
2022/05/09 00:57:32;;;;;;;6.57;5.20;;;;;;;16.66;63.91;101084.31;4973000;28;20407;-73
2022/05/09 01:00:02;;;;;;;6.30;5.80;;;;;;;16.74;63.68;101082.94;4973043;28;20776;-73
2022/05/09 01:02:28;;;;;;;5.72;5.32;;;;;;;16.78;63.58;101084.88;4963866;28;20412;-73
2022/05/09 01:04:57;;;;;;;6.15;5.55;;;;;;;16.79;63.62;101086.53;4963927;28;20781;-74
2022/05/09 01:07:24;;;;;;;7.43;6.15;;;;;;;16.83;63.36;101084.88;4969536;28;20477;-73
2022/05/09 01:09:50;;;;;;;6.57;5.97;;;;;;;16.85;63.14;101079.13;4968584;28;20404;-73
2022/05/09 01:12:30;;;;;;;6.22;5.72;;;;;;;16.85;63.46;101093.66;4972843;28;20732;-73
2022/05/09 01:15:00;;;;;;;8.68;6.40;;;;;;;16.81;63.39;101089.81;4972863;28;20396;-73
2022/05/09 01:17:25;;;;;;;6.47;5.88;;;;;;;16.79;63.55;101080.22;4971733;28;20957;-73
2022/05/09 01:19:53;;;;;;;6.17;5.63;;;;;;;16.77;63.48;101076.91;4966558;28;20504;-73
2022/05/09 01:22:28;;;;;;;8.32;6.03;;;;;;;16.76;63.75;101084.31;4973000;28;20436;-73
2022/05/09 01:24:56;;;;;;;6.15;5.55;;;;;;;16.72;63.75;101083.22;4972858;28;20740;-73
2022/05/09 01:27:22;;;;;;;6.47;5.88;;;;;;;16.67;64.04;101085.09;4964864;28;20513;-73
2022/05/09 01:30:00;;;;;;;6.95;6.20;;;;;;;16.69;64.06;101083.75;4969780;28;20883;-73
2022/05/09 01:32:36;;;;;;;8.63;6.03;;;;;;;16.67;63.78;101080.47;4960153;28;20838;-73
2022/05/09 01:35:07;;;;;;;6.50;6.00;;;;;;;16.63;64.05;101082.06;4972768;28;20508;-73
2022/05/09 01:37:33;;;;;;;6.25;5.68;;;;;;;16.62;64.15;101085.09;4972664;28;20404;-73
2022/05/09 01:39:58;;;;;;;7.25;6.10;;;;;;;16.57;64.12;101081.25;4972726;28;20412;-73
2022/05/09 01:42:25;;;;;;;6.40;5.80;;;;;;;16.56;64.40;101084.28;4971196;28;20396;-73
2022/05/09 01:44:51;;;;;;;7.28;5.68;;;;;;;16.58;64.26;101084.81;4971163;28;20419;-73
2022/05/09 01:49:59;;;;;;;7.05;5.97;;;;;;;16.49;64.28;101092.72;4972917;28;20391;-74
2022/05/09 01:52:26;;;;;;;8.03;6.70;;;;;;;16.45;64.42;101096.22;4972479;28;20400;-74
2022/05/09 01:54:54;;;;;;;6.47;5.80;;;;;;;16.46;64.51;101098.72;4971135;28;20400;-74
2022/05/09 01:57:19;;;;;;;6.53;5.93;;;;;;;16.41;64.50;101087.75;4970598;28;20495;-73
2022/05/09 01:59:45;;;;;;;9.53;5.70;;;;;;;16.47;64.24;101096.78;4970065;28;20427;-73
2022/05/09 02:02:14;;;;;;;6.40;5.80;;;;;;;16.52;64.08;101094.06;4974693;28;20834;-73
2022/05/09 02:04:40;;;;;;;5.85;5.35;;;;;;;16.53;63.79;101091.06;4976333;28;20986;-74
2022/05/09 02:07:09;;;;;;;8.00;5.63;;;;;;;16.55;63.74;101079.88;4976030;28;20392;-73
2022/05/09 02:09:39;;;;;;;5.65;5.10;;;;;;;16.55;64.01;101088.09;4975916;28;20400;-73
2022/05/09 02:12:06;;;;;;;6.25;5.65;;;;;;;16.53;63.78;101091.06;4976032;28;20467;-73
2022/05/09 02:14:31;;;;;;;6.45;5.75;;;;;;;16.52;63.92;101094.91;4972467;28;20903;-73
2022/05/09 02:16:57;;;;;;;7.97;6.13;;;;;;;16.51;63.78;101093.25;4975024;28;20450;-73
2022/05/09 02:19:22;;;;;;;7.67;5.80;;;;;;;16.51;63.74;101093.25;4975535;28;20497;-74
2022/05/09 02:21:47;;;;;;;6.77;5.93;;;;;;;16.49;63.94;101095.44;4975623;28;20895;-74
2022/05/09 02:24:12;;;;;;;6.73;6.10;;;;;;;16.49;63.88;101097.34;4975761;28;20571;-73
2022/05/09 02:26:38;;;;;;;7.20;5.70;;;;;;;16.47;63.78;101092.13;4975769;28;20411;-73
2022/05/09 02:29:04;;;;;;;8.13;5.60;;;;;;;16.47;63.68;101094.03;4960126;28;20820;-73
2022/05/09 02:31:30;;;;;;;7.38;5.95;;;;;;;16.46;63.95;101097.88;4975663;28;20396;-73
2022/05/09 02:33:56;;;;;;;6.35;5.82;;;;;;;16.44;64.08;101091.84;4975583;28;20419;-73
2022/05/09 02:36:21;;;;;;;7.33;6.67;;;;;;;16.37;63.96;101091.28;4974861;28;20400;-74
2022/05/09 02:38:46;;;;;;;6.97;6.10;;;;;;;16.38;63.93;101091.00;4975342;28;20446;-74
2022/05/09 02:41:11;;;;;;;9.27;6.63;;;;;;;16.38;64.00;101099.22;4975075;28;20395;-73
2022/05/09 02:43:37;;;;;;;6.60;5.60;;;;;;;16.38;63.89;101103.88;4974315;28;20427;-73
2022/05/09 02:46:03;;;;;;;6.72;6.05;;;;;;;16.34;63.89;101095.38;4974087;28;20423;-74
2022/05/09 02:48:38;;;;;;;6.72;6.13;;;;;;;16.34;64.08;101105.47;4975305;28;20407;-73
2022/05/09 02:51:05;;;;;;;7.22;6.00;;;;;;;16.35;63.99;101104.41;4974672;28;20400;-74
2022/05/09 02:53:31;;;;;;;7.15;5.93;;;;;;;16.32;64.23;101099.47;4975266;28;20495;-74
2022/05/09 02:55:56;;;;;;;6.78;6.25;;;;;;;16.32;64.14;101099.47;4973208;28;20483;-74
2022/05/09 02:58:22;;;;;;;6.43;5.87;;;;;;;16.32;64.08;101102.19;4972569;28;20892;-74
2022/05/09 03:00:47;;;;;;;6.33;5.73;;;;;;;16.31;63.98;101101.38;4974159;28;20423;-74
2022/05/09 03:05:58;;;;;;;6.27;5.67;;;;;;;16.24;64.45;101105.44;4975081;28;20427;-74
2022/05/09 03:08:24;;;;;;;8.00;6.38;;;;;;;16.21;64.61;101098.59;4959219;28;20913;-74
2022/05/09 03:10:49;;;;;;;7.00;6.30;;;;;;;16.20;64.58;101101.59;4973795;28;20667;-74
2022/05/09 03:13:15;;;;;;;7.67;6.87;;;;;;;16.18;64.53;101107.31;4973769;28;20876;-74
2022/05/09 03:15:44;;;;;;;8.33;6.70;;;;;;;16.16;64.61;101109.53;4973782;28;20404;-74
2022/05/09 03:18:11;;;;;;;7.50;6.80;;;;;;;16.14;64.58;101105.38;4974578;28;20406;-73
2022/05/09 03:20:36;;;;;;;8.20;7.40;;;;;;;16.14;64.85;101102.66;4974811;28;20475;-74
2022/05/09 03:23:04;;;;;;;8.20;7.28;;;;;;;16.10;64.92;101108.66;4974650;28;20424;-74
2022/05/09 03:25:30;;;;;;;8.40;7.50;;;;;;;16.10;64.93;101102.38;4973400;28;20423;-73
2022/05/09 03:27:56;;;;;;;9.03;7.00;;;;;;;16.06;65.13;101099.34;4974579;28;20500;-74
2022/05/09 03:30:22;;;;;;;8.60;7.13;;;;;;;16.07;64.99;101097.41;4974616;28;20415;-74
2022/05/09 03:32:47;;;;;;;8.60;7.50;;;;;;;16.05;65.22;101100.44;4974317;28;20431;-74
2022/05/09 03:35:14;;;;;;;10.60;6.97;;;;;;;16.05;65.36;101096.88;4974493;28;20871;-74
2022/05/09 03:37:39;;;;;;;9.23;8.43;;;;;;;16.03;65.33;101105.34;4974092;28;20400;-73
2022/05/09 03:40:05;;;;;;;7.90;7.20;;;;;;;16.02;65.31;101100.13;4973148;28;20467;-74
2022/05/09 03:42:31;;;;;;;8.07;7.28;;;;;;;16.02;65.12;101102.88;4974215;28;20395;-74
2022/05/09 03:44:57;;;;;;;8.47;7.60;;;;;;;16.01;65.49;101098.47;4974423;28;20393;-74
2022/05/09 03:47:22;;;;;;;9.70;8.02;;;;;;;15.99;65.35;101095.22;4974123;28;20428;-74
2022/05/09 03:49:48;;;;;;;8.00;7.30;;;;;;;15.95;65.54;101089.44;4974121;28;20412;-73
2022/05/09 03:52:14;;;;;;;8.15;7.43;;;;;;;15.90;65.52;101094.91;4973919;28;20412;-74
2022/05/09 03:54:39;;;;;;;9.80;8.10;;;;;;;15.90;65.77;101097.63;4973142;28;21091;-74
2022/05/09 03:57:05;;;;;;;9.37;8.43;;;;;;;15.89;66.09;101095.16;4967527;28;20760;-73
2022/05/09 03:59:32;;;;;;;9.98;9.00;;;;;;;15.87;65.87;101102.81;4973743;28;20423;-74
2022/05/09 04:01:57;;;;;;;9.30;8.45;;;;;;;15.84;66.03;101104.13;4973873;28;20435;-74
2022/05/09 04:04:22;;;;;;;9.87;7.57;;;;;;;15.85;65.96;101108.50;4972801;28;20412;-74
2022/05/09 04:06:51;;;;;;;9.45;8.13;;;;;;;15.82;65.92;101100.03;4965373;28;20451;-73
2022/05/09 04:09:17;;;;;;;8.35;7.50;;;;;;;15.79;65.84;101108.75;4969679;28;20408;-74
2022/05/09 04:11:42;;;;;;;9.32;8.38;;;;;;;15.77;66.13;101102.72;4973710;28;20451;-74
2022/05/09 04:14:07;;;;;;;8.37;7.53;;;;;;;15.78;66.11;101112.56;4971447;28;20487;-74
2022/05/09 04:16:50;;;;;;;9.10;8.32;;;;;;;15.77;66.33;101113.66;4960782;28;20420;-74
2022/05/09 04:19:20;;;;;;;9.27;8.40;;;;;;;15.77;66.24;101116.41;4972212;28;20423;-74
2022/05/09 04:21:46;;;;;;;8.63;7.82;;;;;;;15.77;66.13;101121.88;4965032;28;20433;-74
2022/05/09 04:24:12;;;;;;;9.80;8.68;;;;;;;15.77;66.04;101128.16;4967286;28;20432;-74
2022/05/09 04:26:38;;;;;;;9.30;8.40;;;;;;;15.74;66.36;101125.91;4971845;28;20400;-74
2022/05/09 04:29:03;;;;;;;9.50;8.40;;;;;;;15.73;66.36;101127.03;4972198;28;20397;-73
2022/05/09 04:31:29;;;;;;;10.23;9.15;;;;;;;15.73;66.52;101118.84;4973154;28;20486;-73
2022/05/09 04:33:55;;;;;;;9.07;8.23;;;;;;;15.74;66.36;101125.13;4971745;28;20891;-73
2022/05/09 04:36:25;;;;;;;9.05;8.25;;;;;;;15.73;66.22;101118.00;4972312;28;20455;-73
2022/05/09 04:38:52;;;;;;;14.02;9.15;;;;;;;15.75;66.50;101121.28;4967405;28;20839;-73
2022/05/09 04:41:19;;;;;;;9.52;8.57;;;;;;;15.76;66.44;101121.03;4965117;28;20907;-73
2022/05/09 04:43:45;;;;;;;10.73;8.02;;;;;;;15.77;66.25;101121.88;4972638;28;20404;-73
2022/05/09 04:46:11;;;;;;;10.33;9.23;;;;;;;15.76;66.14;101122.94;4972604;28;20423;-73
2022/05/09 04:48:38;;;;;;;9.35;8.00;;;;;;;15.73;66.68;101131.66;4971553;28;20450;-73
2022/05/09 04:51:03;;;;;;;8.40;7.57;;;;;;;15.72;66.93;101132.75;4963448;28;20429;-72
2022/05/09 04:53:28;;;;;;;11.73;9.47;;;;;;;15.71;66.94;101133.84;4976972;28;20404;-71
2022/05/09 04:55:58;;;;;;;9.83;8.73;;;;;;;15.65;67.10;101132.97;4952207;28;22714;-73
2022/05/09 04:58:23;;;;;;;9.77;8.77;;;;;;;15.65;67.07;101132.13;4951758;28;20464;-73
2022/05/09 05:00:48;;;;;;;9.23;8.37;;;;;;;15.61;67.34;101139.25;4970788;28;20902;-73
2022/05/09 05:03:14;;;;;;;9.90;9.00;;;;;;;15.56;67.42;101140.00;4969537;28;20416;-73
2022/05/09 05:05:40;;;;;;;9.67;8.77;;;;;;;15.53;67.38;101133.16;4972660;28;20483;-73
2022/05/09 05:08:06;;;;;;;9.10;8.15;;;;;;;15.54;67.39;101134.78;4971610;28;20410;-73
2022/05/09 05:10:32;;;;;;;10.48;8.55;;;;;;;15.55;67.35;101138.34;4955127;28;22517;-72
2022/05/09 05:12:58;;;;;;;10.05;9.05;;;;;;;15.58;67.58;101133.19;4962022;28;20424;-73
2022/05/09 05:15:25;;;;;;;8.60;7.80;;;;;;;15.60;67.52;101140.31;4967174;28;20435;-73
2022/05/09 05:17:50;;;;;;;12.90;8.98;;;;;;;15.60;67.54;101138.41;4963539;28;20930;-73
2022/05/09 05:20:16;;;;;;;9.83;8.50;;;;;;;15.63;67.32;101137.06;4961661;28;20436;-73
2022/05/09 05:22:43;;;;;;;9.00;8.02;;;;;;;15.64;67.11;101141.44;4962516;28;20423;-73
2022/05/09 05:25:11;;;;;;;10.23;9.00;;;;;;;15.65;67.16;101138.44;4969585;28;20488;-73
2022/05/09 05:27:36;;;;;;;9.30;8.50;;;;;;;15.71;66.66;101145.56;4971623;28;20400;-73
2022/05/09 05:30:04;;;;;;;9.82;8.52;;;;;;;15.72;66.95;101147.22;4965324;28;20408;-73
2022/05/09 05:32:34;;;;;;;11.18;8.50;;;;;;;15.69;66.81;101150.50;4956481;28;20418;-73
2022/05/09 05:34:59;;;;;;;9.48;8.52;;;;;;;15.73;66.76;101151.63;4957100;28;20776;-73
2022/05/09 05:37:25;;;;;;;9.35;8.38;;;;;;;15.72;66.92;101160.06;4967340;28;20471;-72
2022/05/09 05:39:50;;;;;;;9.23;8.33;;;;;;;15.73;66.75;101161.72;4971222;28;22463;-72
2022/05/09 05:42:17;;;;;;;9.50;8.53;;;;;;;15.75;66.64;101165.00;4970106;28;20417;-73
2022/05/09 05:44:44;;;;;;;10.07;8.52;;;;;;;15.73;66.72;101157.09;4981843;28;20487;-72
2022/05/09 05:47:12;;;;;;;13.25;8.13;;;;;;;15.78;66.50;101159.84;4971063;28;20412;-72
2022/05/09 05:49:39;;;;;;;9.77;8.87;;;;;;;15.79;66.48;101161.50;4969053;28;21008;-73
2022/05/09 05:52:06;;;;;;;9.05;8.27;;;;;;;15.81;66.30;101162.06;4959341;28;20482;-73
2022/05/09 05:54:33;;;;;;;9.55;8.60;;;;;;;15.84;66.49;101172.44;4966798;28;20487;-74
2022/05/09 05:56:59;;;;;;;10.20;8.35;;;;;;;15.82;66.34;101171.06;4959847;28;20427;-74
2022/05/09 05:59:25;;;;;;;9.93;8.80;;;;;;;15.82;66.62;101165.63;4973746;28;20428;-74
2022/05/09 06:01:52;;;;;;;10.68;8.05;;;;;;;15.85;66.60;101170.56;4971905;28;21936;-74
2022/05/09 06:04:17;;;;;;;9.50;8.05;;;;;;;15.87;66.73;101169.19;4972034;28;20393;-74
2022/05/09 06:06:43;;;;;;;14.35;9.07;;;;;;;15.89;66.41;101168.94;4961368;28;20463;-74
2022/05/09 06:09:09;;;;;;;8.47;7.67;;;;;;;15.93;66.45;101168.16;4974574;28;20937;-74
2022/05/09 06:11:35;;;;;;;8.55;7.55;;;;;;;15.98;66.16;101175.56;4959402;28;20499;-74
2022/05/09 06:14:03;;;;;;;10.00;8.23;;;;;;;15.99;66.16;101169.03;4958810;28;20519;-74
2022/05/09 06:16:29;;;;;;;9.57;7.63;;;;;;;16.02;66.17;101182.16;4967745;28;20860;-74
2022/05/09 06:18:54;;;;;;;8.43;7.20;;;;;;;16.05;66.00;101176.16;4958380;28;20516;-74
2022/05/09 06:21:20;;;;;;;11.10;8.33;;;;;;;16.07;66.02;101174.81;4968641;28;20971;-74
2022/05/09 06:23:45;;;;;;;9.98;8.20;;;;;;;16.10;66.16;101181.69;4987045;28;20416;-74
2022/05/09 06:26:14;;;;;;;8.60;7.80;;;;;;;16.15;65.92;101183.59;4963014;28;20413;-74
2022/05/09 06:28:39;;;;;;;8.95;8.02;;;;;;;16.17;65.84;101182.25;4978821;28;20503;-74
2022/05/09 06:31:05;;;;;;;8.57;7.77;;;;;;;16.22;65.61;101189.66;4965720;28;20511;-74
2022/05/09 06:33:31;;;;;;;9.10;8.07;;;;;;;16.22;65.72;101181.47;4905851;28;1727837;-74
2022/05/09 06:35:58;;;;;;;9.20;8.10;;;;;;;16.24;65.65;101184.75;4965688;28;20471;-74
2022/05/09 06:38:27;;;;;;;13.02;8.48;;;;;;;16.27;65.66;101185.03;4959387;28;20416;-74
2022/05/09 06:40:53;;;;;;;10.63;8.20;;;;;;;16.33;65.54;101188.66;4965740;28;20911;-74
2022/05/09 06:43:19;;;;;;;15.60;8.68;;;;;;;16.35;65.51;101187.28;4969636;28;20416;-74
2022/05/09 06:45:45;;;;;;;9.73;8.52;;;;;;;16.42;65.33;101185.13;4972901;28;20415;-74
2022/05/09 06:48:10;;;;;;;13.07;9.02;;;;;;;16.49;65.33;101185.72;4973678;28;20412;-74
2022/05/09 06:50:37;;;;;;;9.83;8.07;;;;;;;16.53;65.07;101186.81;4973314;28;20458;-74
2022/05/09 06:53:03;;;;;;;8.60;7.80;;;;;;;16.54;64.92;101191.22;4971816;28;20401;-74
2022/05/09 06:55:29;;;;;;;9.77;7.93;;;;;;;16.54;64.95;101188.47;4967426;28;20494;-74
2022/05/09 06:57:54;;;;;;;9.50;7.97;;;;;;;16.56;64.95;101189.06;4971178;28;20443;-74
2022/05/09 07:00:23;;;;;;;9.90;8.17;;;;;;;16.59;65.13;101187.72;4960564;28;20887;-74
2022/05/09 07:02:48;;;;;;;7.60;7.00;;;;;;;16.60;64.77;101181.13;4966379;28;20419;-79
2022/05/09 07:05:16;;;;;;;8.60;7.63;;;;;;;16.64;64.92;101185.00;4967503;28;20764;-74
2022/05/09 07:07:43;;;;;;;7.88;7.15;;;;;;;16.67;64.89;101187.19;4969266;28;20415;-74
2022/05/09 07:10:11;;;;;;;8.10;7.30;;;;;;;16.70;64.79;101183.09;4963777;28;20423;-74
2022/05/09 07:12:45;;;;;;;8.88;7.85;;;;;;;16.74;64.94;101182.28;4970601;28;20392;-74
2022/05/09 07:15:12;;;;;;;9.30;8.40;;;;;;;16.78;64.62;101182.59;4959369;28;20454;-73
2022/05/09 07:17:38;;;;;;;7.83;7.07;;;;;;;16.80;64.49;101181.22;4959868;28;20435;-74
2022/05/09 07:20:04;;;;;;;8.13;7.37;;;;;;;16.81;64.19;101188.34;4972479;28;20752;-73
2022/05/09 07:22:29;;;;;;;8.02;7.22;;;;;;;16.83;64.47;101183.41;4971730;28;20427;-73
2022/05/09 07:24:54;;;;;;;8.87;8.00;;;;;;;16.87;64.23;101183.69;4965316;28;20417;-73
2022/05/09 07:27:20;;;;;;;9.60;7.30;;;;;;;16.91;64.24;101179.34;4973397;28;20788;-73
2022/05/09 07:29:45;;;;;;;10.20;7.80;;;;;;;16.93;64.35;101188.94;4970512;28;20416;-73
2022/05/09 07:32:10;;;;;;;7.87;7.07;;;;;;;16.98;64.13;101188.97;4972300;28;20450;-73
2022/05/09 07:34:35;;;;;;;9.50;7.60;;;;;;;17.03;64.31;101191.69;4970831;28;20428;-73
2022/05/09 07:37:01;;;;;;;8.10;7.30;;;;;;;17.10;64.48;101192.25;4973568;28;20664;-73
2022/05/09 07:39:26;;;;;;;8.37;7.13;;;;;;;17.17;64.23;101196.66;4974006;28;20427;-73
2022/05/09 07:41:51;;;;;;;8.13;7.33;;;;;;;17.21;64.04;101195.03;4973681;28;20404;-73
2022/05/09 07:44:16;;;;;;;9.57;7.67;;;;;;;17.22;63.75;101186.56;4973816;28;20418;-73
2022/05/09 07:46:42;;;;;;;9.80;7.22;;;;;;;17.23;63.59;101181.88;4970885;28;20396;-73
2022/05/09 07:49:07;;;;;;;7.30;6.60;;;;;;;17.30;63.49;101182.44;4973797;28;20408;-73
2022/05/09 07:51:37;;;;;;;7.40;6.73;;;;;;;17.34;63.50;101191.75;4973226;28;20408;-72
2022/05/09 07:54:02;;;;;;;8.68;7.15;;;;;;;17.36;63.53;101187.66;4970173;28;20412;-73
2022/05/09 07:56:27;;;;;;;7.20;6.60;;;;;;;17.44;63.44;101192.59;4974119;28;20930;-73
2022/05/09 07:58:53;;;;;;;7.07;6.53;;;;;;;17.45;63.09;101187.97;4972350;28;20412;-73
2022/05/09 08:01:18;;;;;;;7.63;6.93;;;;;;;17.51;63.00;101192.34;4973646;28;20411;-73
2022/05/09 08:03:43;;;;;;;6.53;5.93;;;;;;;17.58;63.21;101201.94;4973270;28;20481;-73
2022/05/09 08:06:08;;;;;;;7.57;6.60;;;;;;;17.61;63.05;101187.72;4973737;28;20420;-73
2022/05/09 08:08:36;;;;;;;10.75;6.43;;;;;;;17.65;62.97;101195.41;4974232;28;20396;-73
2022/05/09 08:11:02;;;;;;;7.47;6.50;;;;;;;17.69;62.92;101196.47;4973984;28;20486;-73
2022/05/09 08:13:32;;;;;;;7.35;6.63;;;;;;;17.74;62.58;101199.22;4960277;28;20836;-73
2022/05/09 08:15:59;;;;;;;7.53;6.00;;;;;;;17.78;62.41;101201.16;4968767;28;20415;-73
2022/05/09 08:18:25;;;;;;;6.85;6.25;;;;;;;17.81;62.15;101192.38;4973628;28;20397;-73
2022/05/09 08:20:51;;;;;;;6.85;5.97;;;;;;;17.85;61.92;101195.41;4971482;28;20464;-73
2022/05/09 08:23:18;;;;;;;5.87;5.27;;;;;;;17.92;61.93;101188.50;4970950;28;20447;-73
2022/05/09 08:25:45;;;;;;;6.93;6.32;;;;;;;17.99;61.54;101194.53;4969728;28;20423;-73
2022/05/09 08:28:11;;;;;;;7.10;6.50;;;;;;;18.06;61.52;101186.03;4967203;28;20526;-73
2022/05/09 08:30:37;;;;;;;6.47;5.97;;;;;;;18.10;61.36;101195.38;4970633;28;20558;-73
2022/05/09 08:33:05;;;;;;;7.85;6.00;;;;;;;18.14;61.05;101190.97;4972376;28;20784;-73
2022/05/09 08:35:31;;;;;;;7.70;6.07;;;;;;;18.21;60.79;101193.44;4972676;28;20416;-73
2022/05/09 08:37:56;;;;;;;10.33;6.10;;;;;;;18.26;61.00;101187.91;4972519;28;20423;-73
2022/05/09 08:40:33;;;;;;;8.80;6.50;;;;;;;18.31;60.88;101185.16;4972392;28;20538;-73
2022/05/09 08:43:09;;;;;;;6.13;5.40;;;;;;;18.37;60.88;101193.13;4972318;28;20943;-73
2022/05/09 08:45:39;;;;;;;6.78;6.18;;;;;;;18.45;61.04;101189.78;4969951;28;20715;-73
2022/05/09 08:48:10;;;;;;;6.43;5.80;;;;;;;18.56;60.78;101183.19;4973250;28;20446;-73
2022/05/09 08:51:05;;;;;;;10.80;6.35;;;;;;;18.65;60.15;101189.75;4972551;28;20744;-73
2022/05/09 08:53:37;;;;;;;7.93;6.73;;;;;;;18.71;59.72;101187.78;4970235;28;20420;-73
2022/05/09 08:56:03;;;;;;;6.43;5.82;;;;;;;18.79;59.45;101184.47;4972202;28;20416;-73
2022/05/09 08:58:28;;;;;;;9.50;6.70;;;;;;;18.88;59.28;101185.50;4968040;28;20764;-73
2022/05/09 09:00:54;;;;;;;13.37;6.07;;;;;;;19.00;58.94;101187.94;4971154;28;20423;-73
2022/05/09 09:03:35;;;;;;;8.32;5.82;;;;;;;19.09;58.83;101178.00;4972242;28;20408;-73
2022/05/09 09:06:19;;;;;;;6.72;5.25;;;;;;;19.22;58.75;101190.28;4967986;28;20433;-73
2022/05/09 09:09:03;;;;;;;7.47;5.50;;;;;;;19.36;58.36;101180.31;4972833;28;20411;-73
2022/05/09 09:11:46;;;;;;;6.57;5.95;;;;;;;19.46;58.01;101181.06;4970153;28;20499;-73
2022/05/09 09:14:35;;;;;;;7.85;4.63;;;;;;;19.55;57.60;101182.09;4957287;28;20399;-73
2022/05/09 09:17:06;;;;;;;6.70;5.38;;;;;;;19.65;57.65;101184.78;4971890;28;20404;-73
2022/05/09 09:19:45;;;;;;;6.22;5.40;;;;;;;19.78;57.40;101188.78;4972373;28;20451;-73
2022/05/09 09:22:25;;;;;;;7.55;5.78;;;;;;;19.92;56.63;101178.72;4958088;28;20400;-73
2022/05/09 09:25:11;;;;;;;8.15;4.80;;;;;;;20.08;56.23;101184.94;4971273;28;20418;-73
2022/05/09 09:27:47;;;;;;;7.17;5.10;;;;;;;20.20;55.87;101186.19;4979712;28;20771;-73
2022/05/09 09:30:18;;;;;;;6.23;5.17;;;;;;;20.36;54.52;101186.03;4972886;28;20431;-73
2022/05/09 09:33:06;;;;;;;9.35;5.78;;;;;;;20.50;54.71;101189.72;4971183;28;20903;-73
2022/05/09 09:36:00;;;;;;;5.60;4.88;;;;;;;20.62;54.48;101181.88;4970370;28;20499;-73
2022/05/09 09:38:46;;;;;;;4.97;4.57;;;;;;;20.81;54.04;101181.94;4962189;28;20407;-73
2022/05/09 09:41:18;;;;;;;5.00;4.50;;;;;;;20.95;54.02;101189.16;4971134;28;20418;-73
2022/05/09 09:43:46;;;;;;;4.75;4.35;;;;;;;21.10;54.36;101183.47;4955982;28;20388;-73
2022/05/09 09:46:11;;;;;;;5.75;4.38;;;;;;;21.28;53.85;101186.50;4971466;28;20431;-73
2022/05/09 09:48:36;;;;;;;4.93;4.53;;;;;;;21.60;52.80;101183.81;4972412;28;20388;-73
2022/05/09 09:51:08;;;;;;;5.30;4.37;;;;;;;21.79;52.66;101179.09;4972643;28;20388;-73
2022/05/09 09:54:01;;;;;;;4.93;3.90;;;;;;;22.19;51.79;101178.41;4960169;28;20949;-73
2022/05/09 09:56:31;;;;;;;7.03;4.70;;;;;;;23.34;48.73;101179.00;4972316;28;20487;-73
2022/05/09 09:59:18;;;;;;;4.78;4.38;;;;;;;24.77;45.94;101174.94;4972395;28;20443;-73
2022/05/09 10:02:00;;;;;;;4.55;3.90;;;;;;;25.76;43.31;101174.88;4971325;28;20418;-71
2022/05/09 10:04:28;;;;;;;5.47;3.90;;;;;;;26.36;41.98;101173.09;4971698;28;20816;-73
2022/05/09 10:07:12;;;;;;;4.20;3.80;;;;;;;26.79;41.06;101180.09;4972199;28;20396;-73
2022/05/09 10:09:41;;;;;;;4.43;4.00;;;;;;;26.98;40.08;101168.53;4972249;28;20733;-73
2022/05/09 10:12:26;;;;;;;3.43;3.10;;;;;;;27.46;39.70;101181.97;4972327;28;20458;-73
2022/05/09 10:14:52;;;;;;;4.07;3.47;;;;;;;27.80;38.84;101164.91;4972243;28;20775;-73
2022/05/09 10:17:30;;;;;;;4.13;3.70;;;;;;;28.17;37.56;101167.81;4956853;28;20412;-73
2022/05/09 10:19:57;;;;;;;4.00;3.75;;;;;;;28.43;37.54;101159.94;4964888;28;20424;-73
2022/05/09 10:25:24;;;;;;;3.77;3.47;;;;;;;28.82;36.44;101153.66;4969340;28;20410;-71
2022/05/09 10:28:21;;;;;;;3.00;2.80;;;;;;;29.26;34.68;101156.63;4970263;28;20416;-70
2022/05/09 10:30:50;;;;;;;3.03;2.92;;;;;;;29.56;34.20;101148.72;4973946;28;20442;-71
2022/05/09 10:33:38;;;;;;;3.20;2.90;;;;;;;29.94;33.77;101145.38;4970172;28;20433;-71
2022/05/09 10:36:10;;;;;;;3.92;3.63;;;;;;;30.47;33.57;101146.78;4964839;28;20523;-71
2022/05/09 10:38:46;;;;;;;5.72;3.63;;;;;;;30.99;32.63;101154.84;4968099;28;20819;-71
2022/05/09 10:41:21;;;;;;;3.42;3.13;;;;;;;31.49;31.25;101145.50;4963639;28;20411;-71
2022/05/09 10:43:58;;;;;;;4.07;3.55;;;;;;;31.93;30.44;101146.78;4969961;28;20419;-71
2022/05/09 10:46:35;;;;;;;5.00;3.33;;;;;;;32.08;29.70;101148.69;4961863;28;20449;-71
2022/05/09 10:49:10;;;;;;;3.60;3.30;;;;;;;32.15;29.82;101143.22;4966246;28;20411;-71
2022/05/09 10:51:50;;;;;;;3.55;3.35;;;;;;;32.23;29.55;101136.56;4967120;28;20449;-71
2022/05/09 10:54:38;;;;;;;3.38;2.78;;;;;;;32.27;29.25;101142.22;4979271;28;20417;-71
2022/05/09 10:57:40;;;;;;;3.95;3.22;;;;;;;32.17;28.88;101140.03;4970521;28;20478;-71
2022/05/09 11:00:14;;;;;;;4.13;3.00;;;;;;;32.34;28.65;101131.91;4974917;28;20427;-71
2022/05/09 11:02:54;;;;;;;3.20;3.00;;;;;;;32.31;27.78;101121.44;4958903;28;20423;-71
2022/05/09 11:05:22;;;;;;;7.63;3.30;;;;;;;32.52;28.62;101118.16;4966284;28;20461;-71
2022/05/09 11:08:01;;;;;;;3.40;3.10;;;;;;;32.66;28.02;101115.63;4957796;28;20449;-71
2022/05/09 11:11:24;;;;;;;3.70;2.95;;;;;;;32.47;28.25;101110.06;4957755;28;20477;-71
2022/05/09 11:14:08;;;;;;;5.23;3.73;;;;;;;32.66;28.60;101107.19;4928127;28;20911;-71
2022/05/09 11:16:50;;;;;;;5.80;4.60;;;;;;;32.65;27.95;101105.56;4966392;28;20487;-71
2022/05/09 11:19:41;;;;;;;3.35;3.05;;;;;;;32.53;28.05;101105.78;4968010;28;20483;-71
2022/05/09 11:22:35;;;;;;;2.77;2.67;;;;;;;32.43;27.94;101102.78;4968705;28;20459;-71
2022/05/09 11:25:38;;;;;;;2.88;2.78;;;;;;;32.26;28.53;101112.53;4960296;28;20422;-70
2022/05/09 11:28:36;;;;;;;3.50;2.80;;;;;;;32.29;28.39;101103.38;4969639;28;20791;-71
2022/05/09 11:31:04;;;;;;;2.88;2.70;;;;;;;32.17;29.44;101104.41;4956214;28;20469;-71
2022/05/09 11:33:45;;;;;;;4.43;2.87;;;;;;;32.22;29.15;101095.66;4955605;28;20954;-70
2022/05/09 11:36:40;;;;;;;3.40;3.10;;;;;;;32.11;28.99;101102.28;4972875;28;20416;-71
2022/05/09 11:39:37;;;;;;;3.55;3.08;;;;;;;31.86;29.07;101097.00;4964905;28;20771;-71
2022/05/09 11:45:10;;;;;;;3.13;2.92;;;;;;;31.66;29.26;101084.22;4971793;28;20387;-71
2022/05/09 11:47:57;;;;;;;2.97;2.73;;;;;;;31.34;29.50;101080.81;4963515;28;20392;-71